Airville, PA

12:12 PM EDT on August 31, 2016 (GMT -0400)
Clarkford Farms/Bald Eagle Estates | | Change Station

Elev 610 ft 39.77 °N, 76.42 °W | Updated 20 seconds ago

Scattered Clouds
Scattered Clouds
86.5 °F
Feels Like 90 °F
N
1.3
Wind Variable Wind from SE
Gusts 2.5 mph

Today
High -- | Low -- °F
--% Chance of Precip.
Yesterday
High -- | Low -- °F
Precip. -- in
Pressure 29.98 in
Visibility 7.0 miles
Clouds Scattered Clouds 1500 ft
Heat Index 90 °F
Dew Point 68 °F
Humidity 53%
Rainfall 0.00 in
Snow Depth Not available.
6:33 AM 7:37 PM
Waning Crescent, 1% visible
METAR KAPG 311445Z 00000KT 7SM SCT015 27/22 A2998
Pressure 29.98 in
Visibility 7.0 miles
Clouds Scattered Clouds 1500 ft
Heat Index 90 °F
Dew Point 68 °F
Humidity 53%
Rainfall 0.00 in
Snow Depth Not available.
6:33 AM 7:37 PM
Waning Crescent, 1% visible
METAR KAPG 311445Z 00000KT 7SM SCT015 27/22 A2998

10-Day Weather Forecast

Almanac

Astronomy

Aug. 31, 2016 Rise Set
Actual Time
Civil Twilight
Nautical Twilight
Astronomical Twilight
Moon
Length of Visible Light
Length of Day
Tomorrow will be .
, % of the Moon is Illuminated

Today's Extremes

State Highs State Lows

Community

WunderPhotos

Upload Photos

1,936,105 photos uploaded!

WunderBlog® & News

Nearby

Air Quality

  Air Quality AQ Index Pollutant
Not available.

Snow Depth

Station Depth Elevation

Earthquake Activity

City Distance Mag. Time & Date
Minimum magnitude displayed is 2.5.

Coastal Water Temperatures

Place Temperature

Stations

Nearby Weather Stations

Station Location Temp. Windchill Dew Point Humidity Wind Precip. Elev Updated Type
                   

Watches & Warnings

There are currently no watches in effect.